X  Close Metar Aviation Weather Data     YMML Melbourne International Airport
Temperature
13°C Temperature
12°C Dewpoint
94% Humidity



Wind
21 KM/H
13 MPH
6 M/S
11 KTS



180°
South
Current Conditions

Mostly Cloudy Mostly Cloudy
Pressure 1010.92 (hPa) - 29.85 (inHg)
Visibility 6.2 (mile) - 10 (km)
Airport
Airport-code YMML

Location: Melbourne International Airport
Distance: 11 (km)

Metar:
YMML 270700Z 18011KT 9999 BKN006 BKN050 13/12 Q1011 RF00/0/004/4

Time: 27-09-2022 17:00 AEST